Хомутово

Карта отелей и гостиниц, располагающихся рядом с аэропортом Хомутово :

Хомутово
Южно-Сахалинск
Сахалинская область 46° 53' 7.7388" N, 142° 43' 2.3412" E
Код аэродрома ИКАО
UHSS
Код аэродрома RU
УХСС
Координаты
N46.88548° E142.71732°
Превышение над уровнем моря
18
Основная полоса
01/19
Курс магнитный
011,2/191,2
Длина основной ВПП
3400
Ширина основной ВПП
45
Покрытие основной ВПП
Твёрдое (железобетон)
Освещение ВПП
Постоянное
Тип: 
Аэродром
Класс аэродрома: 
Международный
Принадлежность: 
ГА
Статус: 
Действующий
Сайт: 
airportus.ru
Страна: 
Россия
Регион: 
Сахалинская область
Город: 
Южно-Сахалинск
Дополнительная информация: 
Военный индекс: ЬХСС/XHSS. Горный. Совместного базирования (ФАВТ и ФСБ). Нкр.=(900/1200)м.
Схемы аэропортов: 
Погода: 

Авиационная погода в Хомутово

Регион: 
Погода METAR: 
UHSS 171900Z 14003MPS 9999 SCT023CB 14/13 Q1014 R19/290060 NOSIG RMK MT OBSC QFE759/1012
Время наблюдения
2021-09-17T19:00:00Z
Температура C
14.0
Точка росы
13.0
Направление ветра
140
Скорость ветра (узлы)
6
Метео видимость
6.21
Явления погоды
Условия полета
VFR
Аэропорт подробнее: 

Найти трансфер

С помощью этой формы Вы можете найти трансфер из аэропорта Хомутово в город, аэропорт или вокзал:

Карта места

Javascript is required to view this map.

Погода в аэропортах:

Авиационная погода в аэропорту Новый

Регион: 
Погода METAR: 
UHHH 171830Z 24004MPS 9999 -SHRA FEW034CB 15/12 Q1009 R23R/190050 TEMPO 3100 -TSRA RMK QFE750/1001
Время наблюдения
2021-09-17T18:30:00Z
Температура C
15.0
Точка росы
12.0
Направление ветра
240
Скорость ветра (узлы)
8
Метео видимость
6.21
Явления погоды
-SHRA
Условия полета
VFR
Аэропорт подробнее: 

Авиационная погода в аэропорту Международный

Регион: 
Погода METAR: 
UKLL 171630Z 01004MPS 3600 -SHRA BKN004 BKN030CB 17/16 Q1005 R31/290055 NOSIG
Время наблюдения
2021-09-17T16:30:00Z
Температура C
17.0
Точка росы
16.0
Направление ветра
10
Скорость ветра (узлы)
8
Метео видимость
2.24
Явления погоды
-SHRA
Условия полета
LIFR
Аэропорт подробнее: 

Авиационная погода в Воронеже

Регион: 
Погода METAR: 
UUOO 171830Z 07003MPS 9999 -SHRA BKN///CB 10/07 Q1017 R12/290160 NOSIG RMK QFE749
Время наблюдения
2021-09-17T18:30:00Z
Температура C
10.0
Точка росы
7.0
Направление ветра
70
Скорость ветра (узлы)
6
Метео видимость
6.21
Явления погоды
-SHRA
Условия полета
Аэропорт подробнее: 

Авиационная погода в Батуми

Регион: 
Погода METAR: 
UGSB 171830Z 05003KT 350V120 6000 SHRA SCT014 BKN028CB 18/17 Q1017 R13/29//55 NOSIG
Время наблюдения
2021-09-17T18:30:00Z
Температура C
18.0
Точка росы
17.0
Направление ветра
50
Скорость ветра (узлы)
3
Метео видимость
3.73
Явления погоды
SHRA
Условия полета
MVFR